Terminal Aerodrome Forecast
Issued by NWS

Current Version | Previous Version | Text Only | Print | Product List | Glossary Off
Versions: 1 2 3 4 5 6 7 8 9 10 11 12 13 14 15 16 17 18 19 20 21 22 23 24

000
FTUS41 KPBZ 031200 CCA
TAFMGW
TAF COR
KMGW 031200Z 0312/0412 21003KT 6SM BR OVC050
      TEMPO 0312/0313 4SM -SHRA BKN040
     FM031400 27004KT P6SM SCT040
     FM040400 00000KT 3SM BR SKC
     FM040900 00000KT 2SM BR SKC=

USA.gov is the U.S. government's official web portal to all federal, state and local government web resources and services.